Time;durP1;ratioP1;P1;durP2;ratioP2;P2;SDS_P1;SDS_P2;PMS_P1;PMS_P2;Temp;Humidity;BMP_temperature;BMP_pressure;BME280_temperature;BME280_humidity;BME280_pressure;Samples;Min_cycle;Max_cycle;Signal;HPM_P1;HPM_P2
2023/03/14 00:02:21;;;;;;;3.40;0.70;;;13.60;99.90;;;;;;5012518;28;20921;-79
2023/03/14 00:04:47;;;;;;;4.83;0.70;;;13.60;99.90;;;;;;5014173;28;20202;-79
2023/03/14 00:07:14;;;;;;;6.10;0.80;;;13.60;99.90;;;;;;5013444;28;20896;-79
2023/03/14 00:09:39;;;;;;;4.00;1.33;;;13.60;99.90;;;;;;5015475;28;20178;-79
2023/03/14 00:12:07;;;;;;;3.20;1.30;;;13.60;99.90;;;;;;5015772;28;20664;-79
2023/03/14 00:14:33;;;;;;;4.10;1.17;;;13.60;99.90;;;;;;5014145;28;20216;-79
2023/03/14 00:16:58;;;;;;;3.30;0.87;;;13.60;99.90;;;;;;4996117;28;20696;-79
2023/03/14 00:19:24;;;;;;;3.60;1.37;;;13.60;99.90;;;;;;5012500;28;21050;-79
2023/03/14 00:21:50;;;;;;;2.93;1.10;;;13.60;99.90;;;;;;5011620;28;20188;-79
2023/03/14 00:24:15;;;;;;;2.10;0.70;;;13.60;99.90;;;;;;5012233;28;20181;-80
2023/03/14 00:26:41;;;;;;;4.63;0.80;;;13.60;99.90;;;;;;5012365;28;20210;-79
2023/03/14 00:29:07;;;;;;;2.80;0.80;;;13.60;99.90;;;;;;5012017;28;20186;-79
2023/03/14 00:31:33;;;;;;;6.13;0.80;;;13.60;99.90;;;;;;5012426;28;20584;-79
2023/03/14 00:33:59;;;;;;;2.30;1.00;;;13.60;99.90;;;;;;4979331;28;20178;-79
2023/03/14 00:36:25;;;;;;;4.83;1.00;;;13.70;99.90;;;;;;5012282;28;20679;-79
2023/03/14 00:38:51;;;;;;;1.97;0.80;;;13.70;99.90;;;;;;5012788;28;20170;-79
2023/03/14 00:41:22;;;;;;;4.20;1.17;;;13.70;99.90;;;;;;5012191;28;20680;-80
2023/03/14 00:43:48;;;;;;;2.20;0.70;;;13.70;99.90;;;;;;5011777;28;20639;-80
2023/03/14 00:46:14;;;;;;;4.00;0.80;;;13.80;99.90;;;;;;4995566;28;20667;-79
2023/03/14 00:48:44;;;;;;;4.27;1.23;;;13.90;99.90;;;;;;5015889;28;20668;-79
2023/03/14 00:51:11;;;;;;;2.17;0.80;;;13.90;99.90;;;;;;4995600;28;20588;-79
2023/03/14 00:53:38;;;;;;;3.83;1.20;;;13.90;99.90;;;;;;5010150;28;20617;-78
2023/03/14 00:56:06;;;;;;;4.63;1.10;;;14.00;99.90;;;;;;5010855;28;20581;-79
2023/03/14 00:58:32;;;;;;;3.77;0.90;;;14.00;99.90;;;;;;4995373;28;20581;-78
2023/03/14 01:00:58;;;;;;;3.70;0.80;;;14.00;99.90;;;;;;5011315;28;21164;-78
2023/03/14 01:03:24;;;;;;;2.67;0.70;;;14.00;99.90;;;;;;5011412;28;20680;-79
2023/03/14 01:05:50;;;;;;;6.03;1.83;;;14.00;99.90;;;;;;5012362;28;20569;-78
2023/03/14 01:08:16;;;;;;;3.27;0.80;;;14.10;99.90;;;;;;5011471;28;20568;-79
2023/03/14 01:10:43;;;;;;;2.30;0.70;;;14.10;99.90;;;;;;5011089;28;20232;-78
2023/03/14 01:13:09;;;;;;;4.43;0.80;;;14.10;99.90;;;;;;5011031;28;20335;-79
2023/03/14 01:15:36;;;;;;;3.83;1.13;;;14.10;99.90;;;;;;5012436;28;20617;-79
2023/03/14 01:18:03;;;;;;;4.23;1.27;;;14.10;99.90;;;;;;5027993;28;20594;-79
2023/03/14 01:20:29;;;;;;;3.47;1.30;;;14.10;99.90;;;;;;5026916;28;20585;-79
2023/03/14 01:22:54;;;;;;;5.73;1.00;;;14.10;99.90;;;;;;5011745;28;21121;-79
2023/03/14 01:25:20;;;;;;;3.37;0.90;;;13.90;99.90;;;;;;5000092;28;20178;-80
2023/03/14 01:27:46;;;;;;;2.00;0.70;;;13.70;99.90;;;;;;4993892;28;20228;-79
2023/03/14 01:30:13;;;;;;;2.50;0.70;;;13.60;99.90;;;;;;5011353;28;20589;-79
2023/03/14 01:32:39;;;;;;;2.90;0.70;;;13.40;99.90;;;;;;5011711;28;20963;-79
2023/03/14 01:35:06;;;;;;;2.73;0.70;;;13.20;99.90;;;;;;4994937;28;20605;-79
2023/03/14 01:37:33;;;;;;;1.73;0.70;;;13.10;99.90;;;;;;5027327;28;21211;-79
2023/03/14 01:39:59;;;;;;;3.13;0.67;;;12.90;99.90;;;;;;5011170;28;20581;-79
2023/03/14 01:42:25;;;;;;;3.90;0.90;;;12.80;99.90;;;;;;4994352;28;20573;-80
2023/03/14 01:44:54;;;;;;;3.20;0.70;;;12.70;99.90;;;;;;5010762;28;20230;-79
2023/03/14 01:47:20;;;;;;;3.25;0.77;;;12.60;99.90;;;;;;5010655;28;20242;-80
2023/03/14 01:49:51;;;;;;;2.00;0.80;;;12.50;99.90;;;;;;4992470;28;20174;-79
2023/03/14 01:52:22;;;;;;;4.15;0.70;;;12.40;99.90;;;;;;5027126;28;20577;-80
2023/03/14 01:54:55;;;;;;;4.10;0.60;;;12.30;99.90;;;;;;5010755;28;20521;-79
2023/03/14 01:57:28;;;;;;;2.55;0.70;;;12.30;99.90;;;;;;5011105;28;20248;-80
2023/03/14 02:00:13;;;;;;;2.03;0.60;;;12.20;99.90;;;;;;4994198;28;20175;-80
2023/03/14 02:02:50;;;;;;;2.55;0.75;;;12.10;99.90;;;;;;5011650;28;20186;-79
2023/03/14 02:05:24;;;;;;;1.75;0.60;;;12.00;99.90;;;;;;5010337;28;20593;-79
2023/03/14 02:07:59;;;;;;;2.50;0.60;;;11.90;99.90;;;;;;4981320;28;20292;-80
2023/03/14 02:10:40;;;;;;;2.33;0.60;;;11.90;99.90;;;;;;4976630;28;20957;-80
2023/03/14 02:13:08;;;;;;;1.98;0.60;;;11.80;99.90;;;;;;5005691;28;20558;-80
2023/03/14 02:15:52;;;;;;;3.53;1.00;;;11.70;99.90;;;;;;5009705;28;20265;-72
2023/03/14 02:18:41;;;;;;;2.20;0.50;;;11.70;99.90;;;;;;4982906;28;20929;-72
2023/03/14 02:21:58;;;;;;;2.00;0.70;;;11.60;99.90;;;;;;4966702;28;20201;-72
2023/03/14 02:24:56;;;;;;;1.30;0.50;;;11.60;99.90;;;;;;4994658;28;20261;-72
2023/03/14 02:27:22;;;;;;;3.15;1.15;;;11.60;99.90;;;;;;5009960;28;20217;-71
2023/03/14 02:29:50;;;;;;;1.60;0.65;;;11.60;99.90;;;;;;5009980;28;20182;-72
2023/03/14 02:32:18;;;;;;;3.20;0.60;;;11.50;99.90;;;;;;4992999;28;20177;-72
2023/03/14 02:34:47;;;;;;;1.55;0.52;;;11.60;99.90;;;;;;5026715;28;20304;-72
2023/03/14 02:37:16;;;;;;;3.10;0.73;;;11.50;99.90;;;;;;4993162;28;20205;-72
2023/03/14 02:39:45;;;;;;;2.33;0.80;;;11.60;99.90;;;;;;4993813;28;20174;-72
2023/03/14 02:42:13;;;;;;;2.03;0.60;;;11.50;99.90;;;;;;4977273;28;20175;-72
2023/03/14 02:44:52;;;;;;;3.40;0.90;;;11.50;99.90;;;;;;5025957;28;20181;-72
2023/03/14 02:47:26;;;;;;;2.28;0.60;;;11.60;99.90;;;;;;5009574;28;20589;-72
2023/03/14 02:49:58;;;;;;;2.45;0.70;;;11.60;99.90;;;;;;4993236;28;20192;-72
2023/03/14 02:52:25;;;;;;;2.88;0.50;;;11.50;99.90;;;;;;5026225;28;20624;-72
2023/03/14 02:54:50;;;;;;;3.03;0.60;;;11.50;99.90;;;;;;5009523;28;20171;-72
2023/03/14 02:57:16;;;;;;;1.40;0.57;;;11.50;99.90;;;;;;5009801;28;20602;-72
2023/03/14 02:59:42;;;;;;;3.30;0.50;;;11.50;99.90;;;;;;4993086;28;20178;-72
2023/03/14 03:02:14;;;;;;;1.95;0.50;;;11.40;99.90;;;;;;5009354;28;20585;-72
2023/03/14 03:04:40;;;;;;;2.70;0.70;;;11.40;99.90;;;;;;4976795;28;20233;-72
2023/03/14 03:07:05;;;;;;;2.30;0.90;;;11.40;99.90;;;;;;5009866;28;20644;-72
2023/03/14 03:09:31;;;;;;;2.73;0.70;;;11.40;99.90;;;;;;5009585;28;20170;-72
2023/03/14 03:11:57;;;;;;;3.10;0.60;;;11.40;99.90;;;;;;5009153;28;20197;-72
2023/03/14 03:14:25;;;;;;;4.53;1.17;;;11.40;99.90;;;;;;5009904;28;20273;-72
2023/03/14 03:16:51;;;;;;;1.50;0.60;;;11.40;99.90;;;;;;5009673;28;20651;-79
2023/03/14 03:19:17;;;;;;;2.73;0.80;;;11.40;99.90;;;;;;5014134;28;20167;-79
2023/03/14 03:21:44;;;;;;;2.83;0.63;;;11.40;99.90;;;;;;5010729;28;20174;-79
2023/03/14 03:24:11;;;;;;;2.13;0.70;;;11.40;99.90;;;;;;4997736;28;20180;-80
2023/03/14 03:26:37;;;;;;;2.00;0.70;;;11.50;99.90;;;;;;4980609;28;20213;-80
2023/03/14 03:29:05;;;;;;;2.05;0.80;;;11.50;99.90;;;;;;4997484;28;20166;-79
2023/03/14 03:31:31;;;;;;;2.07;0.63;;;11.50;99.90;;;;;;5012530;28;20530;-80
2023/03/14 03:33:57;;;;;;;2.27;0.80;;;11.60;99.90;;;;;;5006236;28;20644;-80
2023/03/14 03:36:25;;;;;;;4.45;1.20;;;11.60;99.90;;;;;;4996945;28;20252;-80
2023/03/14 03:38:51;;;;;;;3.17;0.80;;;11.70;99.90;;;;;;5013085;28;20178;-80
2023/03/14 03:41:17;;;;;;;2.40;0.93;;;11.70;99.90;;;;;;5013352;28;20174;-80
2023/03/14 03:43:43;;;;;;;3.27;0.90;;;11.70;99.90;;;;;;4996040;28;20701;-80
2023/03/14 03:46:11;;;;;;;4.47;1.00;;;11.80;99.90;;;;;;5012984;28;20301;-80
2023/03/14 03:48:37;;;;;;;3.40;0.80;;;11.80;99.90;;;;;;5012811;28;20178;-80
2023/03/14 03:51:05;;;;;;;6.18;1.10;;;11.80;99.90;;;;;;5013190;28;20581;-72
2023/03/14 03:53:32;;;;;;;6.63;2.00;;;11.90;99.90;;;;;;5012307;28;20170;-72
2023/03/14 03:55:57;;;;;;;4.63;1.20;;;11.90;99.90;;;;;;5012914;28;20689;-72
2023/03/14 03:58:23;;;;;;;3.70;0.93;;;11.90;99.90;;;;;;5012373;28;20167;-72
2023/03/14 04:00:49;;;;;;;4.53;1.20;;;11.90;99.90;;;;;;4996608;28;20212;-72
2023/03/14 04:03:14;;;;;;;4.30;0.70;;;11.90;99.90;;;;;;4996209;28;20582;-72
2023/03/14 04:05:40;;;;;;;4.40;1.37;;;12.00;99.90;;;;;;5012362;28;20166;-72
2023/03/14 04:08:08;;;;;;;3.50;0.90;;;12.00;99.90;;;;;;5012793;28;20620;-72
2023/03/14 04:10:34;;;;;;;4.20;1.20;;;12.00;99.90;;;;;;5012083;28;20171;-72
2023/03/14 04:13:14;;;;;;;2.95;0.80;;;12.00;99.90;;;;;;5012092;28;20249;-72
2023/03/14 04:15:42;;;;;;;5.38;1.00;;;12.00;99.90;;;;;;5012027;28;20194;-72
2023/03/14 04:18:14;;;;;;;2.75;0.80;;;12.00;99.90;;;;;;5012504;28;20170;-72
2023/03/14 04:20:41;;;;;;;2.13;0.80;;;12.00;99.90;;;;;;5011972;28;20266;-72
2023/03/14 04:23:07;;;;;;;2.23;1.00;;;12.00;99.90;;;;;;4995792;28;20646;-72
2023/03/14 04:25:32;;;;;;;3.63;0.93;;;12.00;99.90;;;;;;5011728;28;20193;-72
2023/03/14 04:28:03;;;;;;;2.75;0.80;;;12.00;99.90;;;;;;4995349;28;20203;-72
2023/03/14 04:30:30;;;;;;;4.13;0.70;;;12.00;99.90;;;;;;4979356;28;20664;-72
2023/03/14 04:33:07;;;;;;;4.45;0.80;;;11.90;99.90;;;;;;4995537;28;20178;-72
2023/03/14 04:35:37;;;;;;;2.60;1.00;;;11.90;99.90;;;;;;4980354;28;20259;-72
2023/03/14 04:38:08;;;;;;;2.47;0.80;;;11.90;99.90;;;;;;5011788;28;20202;-72
2023/03/14 04:40:37;;;;;;;4.15;1.13;;;11.90;99.90;;;;;;4995814;28;20709;-72
2023/03/14 04:43:05;;;;;;;2.03;0.70;;;11.90;99.90;;;;;;5011348;28;20186;-72
2023/03/14 04:45:31;;;;;;;4.32;0.70;;;11.80;99.90;;;;;;5013222;28;20174;-72
2023/03/14 04:47:59;;;;;;;1.83;0.68;;;11.80;99.90;;;;;;5011218;28;20217;-72
2023/03/14 04:50:25;;;;;;;2.30;0.70;;;11.80;99.90;;;;;;4995647;28;20183;-72
2023/03/14 04:52:51;;;;;;;1.73;0.60;;;11.80;99.90;;;;;;4978537;28;20225;-72
2023/03/14 04:55:17;;;;;;;2.28;0.70;;;11.80;99.90;;;;;;5011785;28;20577;-72
2023/03/14 04:57:43;;;;;;;1.83;0.70;;;11.80;99.90;;;;;;4995024;28;20190;-72
2023/03/14 05:00:10;;;;;;;2.58;0.70;;;11.70;99.90;;;;;;4979309;28;20569;-72
2023/03/14 05:03:04;;;;;;;1.98;1.00;;;11.70;99.90;;;;;;5006613;28;20237;-72
2023/03/14 05:05:39;;;;;;;1.60;0.50;;;11.70;99.90;;;;;;5011641;28;20181;-74
2023/03/14 05:08:15;;;;;;;2.50;0.68;;;11.70;99.90;;;;;;5011774;28;20189;-75
2023/03/14 05:11:00;;;;;;;1.30;0.50;;;11.70;99.90;;;;;;5011332;28;20294;-74
2023/03/14 05:13:41;;;;;;;2.78;0.50;;;11.70;99.90;;;;;;4994271;28;20182;-74
2023/03/14 05:16:33;;;;;;;2.70;0.60;;;11.70;99.90;;;;;;4998593;28;20229;-74
2023/03/14 05:19:11;;;;;;;2.70;0.80;;;11.70;99.90;;;;;;4994841;28;20174;-74
2023/03/14 05:21:39;;;;;;;1.23;0.50;;;11.70;99.90;;;;;;5021675;28;20210;-79
2023/03/14 05:24:14;;;;;;;2.25;0.70;;;11.70;99.90;;;;;;5012384;28;20181;-80
2023/03/14 05:27:12;;;;;;;1.65;0.50;;;11.70;99.90;;;;;;4957558;28;20224;-79
2023/03/14 05:29:52;;;;;;;2.58;0.68;;;11.70;99.90;;;;;;4994924;28;20174;-79
2023/03/14 05:32:41;;;;;;;1.10;0.40;;;11.70;99.90;;;;;;4994685;28;20171;-78
2023/03/14 05:35:31;;;;;;;2.35;0.60;;;11.80;99.90;;;;;;5011280;28;20269;-78
2023/03/14 05:38:20;;;;;;;2.30;0.50;;;11.80;99.90;;;;;;4992111;28;20193;-78
2023/03/14 05:41:05;;;;;;;1.52;0.50;;;11.80;99.90;;;;;;5004022;28;20185;-78
2023/03/14 05:43:49;;;;;;;1.55;0.50;;;11.80;99.90;;;;;;5014241;28;20199;-78
2023/03/14 05:46:34;;;;;;;3.67;1.30;;;11.80;99.90;;;;;;5010557;28;20807;-78
2023/03/14 05:49:13;;;;;;;2.72;0.68;;;11.80;99.90;;;;;;4995865;28;20182;-78
2023/03/14 05:51:50;;;;;;;1.45;0.60;;;11.90;99.90;;;;;;5010132;28;20171;-78
2023/03/14 05:54:34;;;;;;;1.50;0.50;;;11.90;99.90;;;;;;5012098;28;20170;-78
2023/03/14 05:57:20;;;;;;;1.10;0.40;;;11.90;99.90;;;;;;4999801;28;20202;-79
2023/03/14 05:59:57;;;;;;;1.50;0.40;;;11.90;99.90;;;;;;5009253;28;20265;-79
2023/03/14 06:02:51;;;;;;;1.30;0.50;;;11.90;99.90;;;;;;4993559;28;20170;-79
2023/03/14 06:05:23;;;;;;;1.10;0.40;;;11.90;99.90;;;;;;4979009;28;20251;-79
2023/03/14 06:07:53;;;;;;;1.75;0.40;;;11.90;99.90;;;;;;4993705;28;20218;-79
2023/03/14 06:10:19;;;;;;;2.03;0.40;;;11.90;99.90;;;;;;5010223;28;20186;-79
2023/03/14 06:12:46;;;;;;;1.20;0.40;;;11.90;99.90;;;;;;5009881;28;20185;-79
2023/03/14 06:15:12;;;;;;;1.20;0.40;;;11.90;99.90;;;;;;4993889;28;20256;-79
2023/03/14 06:17:38;;;;;;;1.20;0.40;;;12.00;99.90;;;;;;4994108;28;20190;-79
2023/03/14 06:20:10;;;;;;;1.80;0.52;;;12.00;99.90;;;;;;5009791;28;20981;-79
2023/03/14 06:22:36;;;;;;;2.00;0.60;;;12.00;99.90;;;;;;5015312;28;20174;-79
2023/03/14 06:25:03;;;;;;;1.43;0.70;;;12.00;99.90;;;;;;4993609;28;20184;-79
2023/03/14 06:27:29;;;;;;;1.85;0.60;;;12.00;99.90;;;;;;4993957;28;20652;-79
2023/03/14 06:29:57;;;;;;;3.22;1.55;;;12.10;99.90;;;;;;4993574;28;20170;-79
2023/03/14 06:32:24;;;;;;;1.30;0.55;;;12.10;99.90;;;;;;5010064;28;20232;-79
2023/03/14 06:34:53;;;;;;;1.38;0.60;;;12.10;99.90;;;;;;5009742;28;20543;-79
2023/03/14 06:37:19;;;;;;;2.20;0.87;;;12.10;99.90;;;;;;5010135;28;20206;-79
2023/03/14 06:39:45;;;;;;;2.47;0.70;;;12.20;99.90;;;;;;5009683;28;20585;-78
2023/03/14 06:42:21;;;;;;;3.13;0.60;;;12.20;99.90;;;;;;5009802;28;20177;-79
2023/03/14 06:44:47;;;;;;;1.30;0.60;;;12.20;99.90;;;;;;4993698;28;20185;-80
2023/03/14 06:47:14;;;;;;;2.60;0.60;;;12.30;99.90;;;;;;4993077;28;20721;-79
2023/03/14 06:49:42;;;;;;;1.95;0.60;;;12.40;99.90;;;;;;4993376;28;20588;-78
2023/03/14 06:52:08;;;;;;;1.20;0.50;;;12.40;99.90;;;;;;5011667;28;20166;-79
2023/03/14 06:54:34;;;;;;;1.75;0.60;;;12.50;99.90;;;;;;5014213;28;20177;-79
2023/03/14 06:57:00;;;;;;;3.40;1.00;;;12.60;99.90;;;;;;5013677;28;20194;-78
2023/03/14 06:59:26;;;;;;;2.40;0.60;;;12.70;99.90;;;;;;5019438;28;20594;-79
2023/03/14 07:01:52;;;;;;;2.70;0.60;;;12.80;99.90;;;;;;4996253;28;20679;-79
2023/03/14 07:04:18;;;;;;;1.10;0.40;;;12.80;99.90;;;;;;5013971;28;20604;-79
2023/03/14 07:06:47;;;;;;;2.20;0.60;;;12.90;99.90;;;;;;5012994;28;20221;-78
2023/03/14 07:09:14;;;;;;;2.40;0.80;;;12.90;99.90;;;;;;5013830;28;20573;-79
2023/03/14 07:11:47;;;;;;;1.60;0.50;;;12.90;99.90;;;;;;4995536;28;20589;-79
2023/03/14 07:14:13;;;;;;;1.43;0.60;;;13.00;99.90;;;;;;5013910;28;20581;-80
2023/03/14 07:16:38;;;;;;;1.30;0.50;;;13.10;99.90;;;;;;5022276;28;21192;-81
2023/03/14 07:19:06;;;;;;;1.40;0.40;;;13.30;99.90;;;;;;5013007;28;20316;-80
2023/03/14 07:21:34;;;;;;;1.20;0.50;;;13.40;99.90;;;;;;5013262;28;20692;-78
2023/03/14 07:24:01;;;;;;;1.30;0.50;;;13.50;99.90;;;;;;4996484;28;20646;-77
2023/03/14 07:26:28;;;;;;;2.80;0.57;;;13.60;99.90;;;;;;5029627;28;21259;-78
2023/03/14 07:28:54;;;;;;;1.30;0.60;;;13.70;99.90;;;;;;4996637;28;20589;-78
2023/03/14 07:31:21;;;;;;;1.67;0.60;;;13.70;99.90;;;;;;5013561;28;20692;-78
2023/03/14 07:33:47;;;;;;;3.70;0.80;;;13.70;99.90;;;;;;5010279;28;20634;-80
2023/03/14 07:36:13;;;;;;;1.20;0.50;;;13.80;99.90;;;;;;4999046;28;20625;-79
2023/03/14 07:38:42;;;;;;;2.37;0.70;;;14.00;99.90;;;;;;5013436;28;20580;-79
2023/03/14 07:41:40;;;;;;;1.67;0.70;;;14.10;99.90;;;;;;4998297;28;20690;-79
2023/03/14 07:44:24;;;;;;;2.10;0.70;;;14.20;99.90;;;;;;5014019;28;21245;-79
2023/03/14 07:46:50;;;;;;;1.70;0.80;;;14.20;99.90;;;;;;5012850;28;20695;-79
2023/03/14 07:49:16;;;;;;;1.20;0.60;;;14.20;99.90;;;;;;5013699;28;20944;-79
2023/03/14 07:51:43;;;;;;;1.50;0.60;;;14.30;99.90;;;;;;4996128;28;20580;-78
2023/03/14 07:54:10;;;;;;;1.30;0.50;;;14.30;99.90;;;;;;5013155;28;20266;-77
2023/03/14 07:56:35;;;;;;;2.23;0.70;;;14.30;99.90;;;;;;5012350;28;20605;-77
2023/03/14 07:59:01;;;;;;;1.60;0.50;;;14.40;99.90;;;;;;5012813;28;21137;-78
2023/03/14 08:01:27;;;;;;;1.17;0.47;;;14.40;99.90;;;;;;5016457;28;20194;-78
2023/03/14 08:03:53;;;;;;;1.30;0.50;;;14.40;99.90;;;;;;5011855;28;20190;-78
2023/03/14 08:06:19;;;;;;;1.93;0.50;;;14.50;99.90;;;;;;5012766;28;20225;-77
2023/03/14 08:08:44;;;;;;;1.30;0.40;;;14.50;99.90;;;;;;5012350;28;21153;-78
2023/03/14 08:11:10;;;;;;;1.13;0.40;;;14.50;99.90;;;;;;5012736;28;20178;-77
2023/03/14 08:13:39;;;;;;;2.60;0.50;;;14.50;99.90;;;;;;5031469;28;20205;-77
2023/03/14 08:16:06;;;;;;;1.30;0.50;;;14.50;99.90;;;;;;5014030;28;20182;-76
2023/03/14 08:18:32;;;;;;;1.20;0.50;;;14.50;99.90;;;;;;5013470;28;20668;-78
2023/03/14 08:20:58;;;;;;;1.30;0.50;;;14.50;99.90;;;;;;5013601;28;20581;-78
2023/03/14 08:23:24;;;;;;;2.47;0.60;;;14.50;99.90;;;;;;5013160;28;20631;-79
2023/03/14 08:25:50;;;;;;;1.50;0.40;;;14.40;99.90;;;;;;5013850;28;20573;-78
2023/03/14 08:28:17;;;;;;;1.90;0.47;;;14.50;99.90;;;;;;5012342;28;20210;-79
2023/03/14 08:30:43;;;;;;;1.03;0.40;;;14.50;99.90;;;;;;4995463;28;20573;-79
2023/03/14 08:33:09;;;;;;;2.20;0.40;;;14.50;99.90;;;;;;5013306;28;20589;-78
2023/03/14 08:35:34;;;;;;;1.10;0.50;;;14.50;99.90;;;;;;5011837;28;20604;-78
2023/03/14 08:38:01;;;;;;;1.50;0.50;;;14.50;99.90;;;;;;5012134;28;20190;-78
2023/03/14 08:40:26;;;;;;;2.10;0.63;;;14.50;99.90;;;;;;5013085;28;20182;-79
2023/03/14 08:42:52;;;;;;;1.23;0.60;;;14.60;99.90;;;;;;5011858;28;20585;-79
2023/03/14 08:45:18;;;;;;;1.97;0.60;;;14.60;99.90;;;;;;5012000;28;20179;-78
2023/03/14 08:47:45;;;;;;;1.40;0.50;;;14.70;99.90;;;;;;5013024;28;20209;-79
2023/03/14 08:50:11;;;;;;;1.70;0.60;;;14.70;99.90;;;;;;5014382;28;20767;-78
2023/03/14 08:52:39;;;;;;;1.20;0.40;;;14.80;99.90;;;;;;5011061;28;20680;-79
2023/03/14 08:55:06;;;;;;;1.30;0.50;;;14.80;99.90;;;;;;5012101;28;20588;-79
2023/03/14 08:57:33;;;;;;;1.57;0.50;;;14.80;99.90;;;;;;5027782;28;20636;-80
2023/03/14 08:59:58;;;;;;;1.20;0.40;;;14.80;99.90;;;;;;5013080;28;20593;-79
2023/03/14 09:02:25;;;;;;;1.10;0.40;;;14.80;99.90;;;;;;5012301;28;20631;-79
2023/03/14 09:04:52;;;;;;;1.30;0.50;;;14.70;99.90;;;;;;5011934;28;20197;-80
2023/03/14 09:07:18;;;;;;;1.30;0.50;;;14.60;99.90;;;;;;5011275;28;20710;-81
2023/03/14 09:09:44;;;;;;;1.20;0.50;;;14.50;99.90;;;;;;5012632;28;20617;-80
2023/03/14 09:12:10;;;;;;;2.30;0.60;;;14.40;99.90;;;;;;5011767;28;20600;-81
2023/03/14 09:14:36;;;;;;;1.70;0.70;;;14.30;99.90;;;;;;5009573;28;20597;-80
2023/03/14 09:17:03;;;;;;;2.37;1.53;;;14.20;99.90;;;;;;5009590;28;20680;-79
2023/03/14 09:19:29;;;;;;;2.40;1.23;;;14.10;99.90;;;;;;5010707;28;20658;-78
2023/03/14 09:21:55;;;;;;;2.13;0.80;;;14.10;99.90;;;;;;5012289;28;20609;-78
2023/03/14 09:24:20;;;;;;;1.77;1.27;;;14.10;99.90;;;;;;5012101;28;20643;-79
2023/03/14 09:26:46;;;;;;;2.53;0.80;;;14.00;99.90;;;;;;5008040;28;20708;-78
2023/03/14 09:29:12;;;;;;;1.50;0.70;;;14.00;99.90;;;;;;5010301;28;20748;-79
2023/03/14 09:31:38;;;;;;;3.33;1.60;;;14.00;99.90;;;;;;5007781;28;20554;-79
2023/03/14 09:34:04;;;;;;;1.50;0.67;;;14.00;99.90;;;;;;5010920;28;20604;-79
2023/03/14 09:36:30;;;;;;;2.37;1.00;;;14.00;99.90;;;;;;5011484;28;20622;-79
2023/03/14 09:38:56;;;;;;;3.50;0.70;;;13.90;99.90;;;;;;5011076;28;20236;-79
2023/03/14 09:41:30;;;;;;;3.33;0.90;;;13.90;99.90;;;;;;5011634;28;20574;-79
2023/03/14 09:44:19;;;;;;;7.47;2.80;;;13.70;99.90;;;;;;5012125;28;20177;-79
2023/03/14 09:46:50;;;;;;;2.40;0.90;;;13.50;99.90;;;;;;5011487;28;20645;-78
2023/03/14 09:49:28;;;;;;;2.40;1.05;;;13.30;99.90;;;;;;4992554;28;20574;-79
2023/03/14 09:51:56;;;;;;;1.40;0.73;;;13.10;99.90;;;;;;4990288;28;20261;-81
2023/03/14 09:54:42;;;;;;;1.90;1.08;;;12.80;99.90;;;;;;5003737;28;20709;-80
2023/03/14 09:57:18;;;;;;;1.80;1.15;;;12.60;99.90;;;;;;4987061;28;20211;-79
2023/03/14 09:59:46;;;;;;;2.53;0.80;;;12.40;99.90;;;;;;5013079;28;20515;-79
2023/03/14 10:02:15;;;;;;;2.15;0.90;;;12.10;99.90;;;;;;5012177;28;20171;-79
2023/03/14 10:04:44;;;;;;;1.77;0.90;;;12.00;99.90;;;;;;5016039;28;20207;-81
2023/03/14 10:07:15;;;;;;;2.08;1.05;;;11.80;99.90;;;;;;5011601;28;20213;-79
2023/03/14 10:09:44;;;;;;;2.10;1.30;;;11.80;99.90;;;;;;5010252;28;20186;-80
2023/03/14 10:12:10;;;;;;;2.88;1.92;;;11.70;99.90;;;;;;5010224;28;20725;-80
2023/03/14 10:14:49;;;;;;;2.80;1.60;;;11.60;99.90;;;;;;5009876;28;20201;-80
2023/03/14 10:17:17;;;;;;;2.70;1.52;;;11.50;99.90;;;;;;5011441;28;20962;-80
2023/03/14 10:19:59;;;;;;;2.53;1.95;;;11.50;99.90;;;;;;4989401;28;20197;-79
2023/03/14 10:22:28;;;;;;;4.53;2.15;;;11.40;99.90;;;;;;5009972;28;20261;-79
2023/03/14 10:24:59;;;;;;;3.78;1.77;;;11.30;99.90;;;;;;5011127;28;20574;-79
2023/03/14 10:27:34;;;;;;;3.33;2.67;;;11.20;99.90;;;;;;5010955;28;20201;-81
2023/03/14 10:30:05;;;;;;;3.33;2.20;;;11.20;99.90;;;;;;4993405;28;20169;-81
2023/03/14 10:32:36;;;;;;;2.28;1.38;;;11.10;99.90;;;;;;5010134;28;20547;-80
2023/03/14 10:35:14;;;;;;;2.50;1.98;;;11.00;99.90;;;;;;4974489;28;20263;-80
2023/03/14 10:38:01;;;;;;;3.90;1.90;;;10.90;99.90;;;;;;5007377;28;20186;-74
2023/03/14 10:40:31;;;;;;;3.75;2.80;;;10.90;99.90;;;;;;5011318;28;20181;-73
2023/03/14 10:43:03;;;;;;;4.00;2.92;;;10.80;99.90;;;;;;5008626;28;20174;-74
2023/03/14 10:45:36;;;;;;;5.35;2.78;;;10.80;99.90;;;;;;5010221;28;20209;-74
2023/03/14 10:48:32;;;;;;;4.10;1.98;;;10.80;99.90;;;;;;5009128;28;20562;-74
2023/03/14 10:51:32;;;;;;;2.70;1.70;;;10.70;99.90;;;;;;5008785;28;20251;-73
2023/03/14 10:54:35;;;;;;;3.22;1.20;;;10.70;99.90;;;;;;4974942;28;20221;-74
2023/03/14 10:57:03;;;;;;;1.50;0.80;;;10.70;99.90;;;;;;4962155;28;20786;-74
2023/03/14 10:59:35;;;;;;;3.00;1.23;;;10.70;99.90;;;;;;5010572;28;20205;-74
2023/03/14 11:02:46;;;;;;;4.13;1.25;;;10.70;99.90;;;;;;5003062;28;20244;-74
2023/03/14 11:05:18;;;;;;;4.30;2.08;;;10.80;99.90;;;;;;4983018;28;20194;-74
2023/03/14 11:07:45;;;;;;;4.25;2.35;;;10.80;99.90;;;;;;5009682;28;20228;-74
2023/03/14 11:10:30;;;;;;;3.25;2.38;;;10.90;99.90;;;;;;5008389;28;20182;-74
2023/03/14 11:13:26;;;;;;;2.95;1.90;;;10.90;99.90;;;;;;5009878;28;20738;-74
2023/03/14 11:15:59;;;;;;;3.88;2.67;;;10.90;99.90;;;;;;5005812;28;20288;-74
2023/03/14 11:18:44;;;;;;;3.40;2.53;;;10.90;99.90;;;;;;5001175;28;20264;-74
2023/03/14 11:21:31;;;;;;;3.85;2.17;;;11.00;99.90;;;;;;5008731;28;20648;-74
2023/03/14 11:24:03;;;;;;;1.75;1.20;;;11.20;99.90;;;;;;5010591;28;20250;-74
2023/03/14 11:26:55;;;;;;;3.78;1.48;;;11.40;99.90;;;;;;5007759;28;20302;-74
2023/03/14 11:29:33;;;;;;;3.78;1.92;;;11.60;99.90;;;;;;5007639;28;20257;-74
2023/03/14 11:32:03;;;;;;;4.97;2.78;;;11.70;99.90;;;;;;5001117;28;20175;-74
2023/03/14 11:34:51;;;;;;;2.55;1.40;;;11.80;99.90;;;;;;5009337;28;20270;-74
2023/03/14 11:37:26;;;;;;;3.45;1.83;;;12.00;99.90;;;;;;5009407;28;20197;-74
2023/03/14 11:40:08;;;;;;;2.45;1.63;;;12.00;99.90;;;;;;5013346;28;20186;-74
2023/03/14 11:42:34;;;;;;;1.42;0.70;;;12.00;99.90;;;;;;5006003;28;20542;-74
2023/03/14 11:45:01;;;;;;;1.87;0.63;;;11.90;99.90;;;;;;5008132;28;20175;-73
2023/03/14 11:47:37;;;;;;;1.83;0.43;;;11.70;99.90;;;;;;5012037;28;20210;-73
2023/03/14 11:50:20;;;;;;;1.30;0.50;;;11.40;99.90;;;;;;5006356;28;20179;-74
2023/03/14 11:52:54;;;;;;;1.77;0.57;;;11.20;99.90;;;;;;5012755;28;20170;-74
2023/03/14 11:55:25;;;;;;;1.23;0.50;;;11.00;99.90;;;;;;4994098;28;20182;-74
2023/03/14 11:57:56;;;;;;;1.60;0.75;;;10.80;99.90;;;;;;5014079;28;20202;-73
2023/03/14 12:00:24;;;;;;;3.40;0.90;;;10.70;99.90;;;;;;4995881;28;20179;-73
2023/03/14 12:02:53;;;;;;;2.20;0.80;;;10.50;99.90;;;;;;5012679;28;20271;-73
2023/03/14 12:05:21;;;;;;;2.03;0.70;;;10.40;99.90;;;;;;5013864;28;20250;-73
2023/03/14 12:08:09;;;;;;;1.42;0.73;;;10.40;99.90;;;;;;5012914;28;20216;-73
2023/03/14 12:10:47;;;;;;;2.33;0.70;;;10.30;99.90;;;;;;4995241;28;20178;-73
2023/03/14 12:13:15;;;;;;;2.58;0.80;;;10.30;99.90;;;;;;4995244;28;20206;-74
2023/03/14 12:15:53;;;;;;;2.00;0.80;;;10.30;99.90;;;;;;5012869;28;20555;-73
2023/03/14 12:18:27;;;;;;;1.95;0.70;;;10.30;99.90;;;;;;4995637;28;20178;-73
2023/03/14 12:21:02;;;;;;;1.40;0.65;;;10.30;99.90;;;;;;5002012;28;20821;-74
2023/03/14 12:23:37;;;;;;;4.95;0.70;;;10.30;99.90;;;;;;5011781;28;20223;-73
2023/03/14 12:26:07;;;;;;;1.55;0.60;;;10.30;99.90;;;;;;4995893;28;20182;-73
2023/03/14 12:28:32;;;;;;;4.40;0.90;;;10.30;99.90;;;;;;4995720;28;20180;-74
2023/03/14 12:31:30;;;;;;;1.70;0.83;;;10.30;99.90;;;;;;5013355;28;20170;-73
2023/03/14 12:34:11;;;;;;;2.50;0.80;;;10.30;99.90;;;;;;5012508;28;20174;-73
2023/03/14 12:36:49;;;;;;;2.17;0.70;;;10.40;99.90;;;;;;5011787;28;20259;-73
2023/03/14 12:39:27;;;;;;;1.95;0.75;;;10.40;99.90;;;;;;5027983;28;20716;-74
2023/03/14 12:42:04;;;;;;;1.60;0.60;;;10.40;99.90;;;;;;5011472;28;20174;-73
2023/03/14 12:44:29;;;;;;;3.05;0.70;;;10.40;99.90;;;;;;5013026;28;20201;-74
2023/03/14 12:47:19;;;;;;;1.40;0.60;;;10.40;99.90;;;;;;5010953;28;20206;-74
2023/03/14 12:49:57;;;;;;;1.40;0.65;;;10.40;99.90;;;;;;4959646;28;20189;-74
2023/03/14 12:52:46;;;;;;;1.50;0.68;;;10.30;99.90;;;;;;5011105;28;20178;-73
2023/03/14 12:55:19;;;;;;;1.30;0.60;;;10.40;99.90;;;;;;5013029;28;20182;-74
2023/03/14 12:57:53;;;;;;;2.38;0.75;;;10.30;99.90;;;;;;5011317;28;20198;-73
2023/03/14 13:00:29;;;;;;;2.67;0.60;;;10.30;99.90;;;;;;5012975;28;20205;-73
2023/03/14 13:03:22;;;;;;;5.10;0.90;;;10.20;99.90;;;;;;5010728;28;20185;-73
2023/03/14 13:06:01;;;;;;;3.47;1.00;;;10.10;99.90;;;;;;5009975;28;20183;-74
2023/03/14 13:08:45;;;;;;;2.97;0.73;;;10.00;99.90;;;;;;5012262;28;20206;-73
2023/03/14 13:11:15;;;;;;;2.65;0.80;;;10.00;99.90;;;;;;5010849;28;20178;-74